Time;durP1;ratioP1;P1;durP2;ratioP2;P2;SDS_P1;SDS_P2;PMS_P1;PMS_P2;Temp;Humidity;BMP_temperature;BMP_pressure;BME280_temperature;BME280_humidity;BME280_pressure;Samples;Min_cycle;Max_cycle;Signal;HPM_P1;HPM_P2
2022/05/24 00:01:12;;;;;;;0.00;0.00;;;;;;;;;;5079842;28;20501;-65
2022/05/24 00:03:38;;;;;;;0.00;0.00;;;;;;;;;;5089671;28;20134;-65
2022/05/24 00:06:05;;;;;;;0.00;0.00;;;;;;;;;;5087632;28;20055;-65
2022/05/24 00:08:31;;;;;;;0.30;0.30;;;;;;;;;;5055050;28;20050;-65
2022/05/24 00:10:58;;;;;;;0.00;0.00;;;;;;;;;;5079453;28;20087;-65
2022/05/24 00:13:24;;;;;;;0.00;0.00;;;;;;;;;;5084347;28;20045;-65
2022/05/24 00:15:51;;;;;;;0.08;0.08;;;;;;;;;;5072013;28;20107;-66
2022/05/24 00:18:19;;;;;;;0.00;0.00;;;;;;;;;;5069615;28;20135;-65
2022/05/24 00:20:47;;;;;;;0.00;0.00;;;;;;;;;;5081480;28;20053;-65
2022/05/24 00:23:13;;;;;;;0.00;0.00;;;;;;;;;;5087447;28;20103;-65
2022/05/24 00:25:44;;;;;;;0.00;0.00;;;;;;;;;;5088908;28;20053;-66
2022/05/24 00:28:12;;;;;;;0.00;0.00;;;;;;;;;;5082674;28;20624;-65
2022/05/24 00:30:38;;;;;;;0.00;0.00;;;;;;;;;;5075971;28;20084;-65
2022/05/24 00:33:05;;;;;;;0.00;0.00;;;;;;;;;;5080788;28;20267;-66
2022/05/24 00:35:32;;;;;;;0.00;0.00;;;;;;;;;;5087391;28;20060;-65
2022/05/24 00:37:58;;;;;;;0.00;0.00;;;;;;;;;;5088388;28;20057;-66
2022/05/24 00:40:30;;;;;;;0.00;0.00;;;;;;;;;;5077579;28;20056;-66
2022/05/24 00:42:57;;;;;;;0.00;0.00;;;;;;;;;;5080021;28;20134;-66
2022/05/24 00:45:29;;;;;;;0.00;0.00;;;;;;;;;;5086888;28;20128;-65
2022/05/24 00:48:00;;;;;;;0.00;0.00;;;;;;;;;;5084491;28;20545;-65
2022/05/24 00:50:30;;;;;;;0.40;0.40;;;;;;;;;;5075932;28;20999;-65
2022/05/24 00:53:07;;;;;;;0.03;0.03;;;;;;;;;;5087640;28;20052;-65
2022/05/24 00:55:45;;;;;;;0.15;0.15;;;;;;;;;;5086934;28;20141;-65
2022/05/24 00:58:19;;;;;;;0.10;0.10;;;;;;;;;;5088562;28;20057;-65
2022/05/24 01:00:45;;;;;;;0.00;0.00;;;;;;;;;;5085752;28;20560;-65
2022/05/24 01:03:12;;;;;;;0.00;0.00;;;;;;;;;;5088565;28;20122;-65
2022/05/24 01:05:39;;;;;;;0.00;0.00;;;;;;;;;;5088944;28;20053;-65
2022/05/24 01:08:05;;;;;;;0.00;0.00;;;;;;;;;;5068175;28;20053;-65
2022/05/24 01:10:33;;;;;;;0.10;0.10;;;;;;;;;;5075668;28;20138;-65
2022/05/24 01:13:04;;;;;;;0.00;0.00;;;;;;;;;;5086438;28;20059;-65
2022/05/24 01:15:31;;;;;;;0.00;0.00;;;;;;;;;;5077237;28;20087;-65
2022/05/24 01:17:58;;;;;;;0.00;0.00;;;;;;;;;;5067827;28;20053;-65
2022/05/24 01:20:25;;;;;;;0.00;0.00;;;;;;;;;;5067585;28;20099;-65
2022/05/24 01:22:58;;;;;;;0.00;0.00;;;;;;;;;;5068192;28;20056;-65
2022/05/24 01:25:24;;;;;;;0.20;0.20;;;;;;;;;;5076202;28;20053;-65
2022/05/24 01:27:51;;;;;;;0.03;0.03;;;;;;;;;;5087151;28;20056;-66
2022/05/24 01:30:17;;;;;;;0.00;0.00;;;;;;;;;;5068684;28;20279;-65
2022/05/24 01:38:16;;;;;;;0.00;0.00;;;;;;;;;;5088079;28;20052;-65
2022/05/24 01:40:46;;;;;;;0.00;0.00;;;;;;;;;;5075509;28;20057;-65
2022/05/24 01:43:13;;;;;;;0.00;0.00;;;;;;;;;;5047415;28;20049;-65
2022/05/24 01:45:43;;;;;;;0.00;0.00;;;;;;;;;;5046532;28;20050;-65
2022/05/24 01:48:12;;;;;;;0.00;0.00;;;;;;;;;;5047879;28;20061;-65
2022/05/24 01:50:40;;;;;;;0.10;0.10;;;;;;;;;;5066064;28;20114;-66
2022/05/24 01:53:09;;;;;;;0.00;0.00;;;;;;;;;;5087529;28;20098;-65
2022/05/24 01:55:39;;;;;;;0.10;0.10;;;;;;;;;;5077080;28;20053;-65
2022/05/24 01:58:07;;;;;;;0.00;0.00;;;;;;;;;;5079314;28;20057;-65
2022/05/24 02:00:33;;;;;;;0.00;0.00;;;;;;;;;;5077659;28;20076;-65
2022/05/24 02:03:00;;;;;;;0.00;0.00;;;;;;;;;;5067085;28;20057;-66
2022/05/24 02:05:34;;;;;;;0.00;0.00;;;;;;;;;;5067268;28;20875;-65
2022/05/24 02:08:01;;;;;;;0.00;0.00;;;;;;;;;;5086019;28;20485;-66
2022/05/24 02:10:30;;;;;;;0.05;0.05;;;;;;;;;;5072908;28;20553;-65
2022/05/24 02:13:00;;;;;;;0.00;0.00;;;;;;;;;;5067884;28;20053;-65
2022/05/24 02:15:28;;;;;;;0.00;0.00;;;;;;;;;;5067023;28;20093;-65
2022/05/24 02:17:58;;;;;;;0.00;0.00;;;;;;;;;;5084939;28;20107;-66
2022/05/24 02:20:32;;;;;;;0.00;0.00;;;;;;;;;;5081117;28;20154;-65
2022/05/24 02:22:58;;;;;;;0.20;0.20;;;;;;;;;;5061740;28;20098;-66
2022/05/24 02:25:29;;;;;;;0.00;0.00;;;;;;;;;;5084554;28;20540;-65
2022/05/24 02:27:56;;;;;;;0.00;0.00;;;;;;;;;;5086160;28;20048;-65
2022/05/24 02:30:24;;;;;;;0.00;0.00;;;;;;;;;;5083159;28;20554;-65
2022/05/24 02:32:50;;;;;;;0.00;0.00;;;;;;;;;;5086891;28;20064;-65
2022/05/24 02:35:17;;;;;;;0.00;0.00;;;;;;;;;;5084423;28;20558;-65
2022/05/24 02:37:44;;;;;;;0.00;0.00;;;;;;;;;;5086956;28;20056;-65
2022/05/24 02:42:56;;;;;;;0.00;0.00;;;;;;;;;;5067090;28;20056;-65
2022/05/24 02:45:22;;;;;;;0.00;0.00;;;;;;;;;;5074062;28;20510;-65
2022/05/24 02:47:49;;;;;;;0.00;0.00;;;;;;;;;;5087159;28;20059;-66
2022/05/24 02:50:16;;;;;;;0.00;0.00;;;;;;;;;;5085718;28;20146;-65
2022/05/24 02:52:42;;;;;;;0.00;0.00;;;;;;;;;;5083005;28;20056;-66
2022/05/24 02:55:11;;;;;;;0.00;0.00;;;;;;;;;;5088024;28;20053;-65
2022/05/24 02:57:37;;;;;;;;;;;;;;;;;;5089758;28;20053;-65
2022/05/24 03:00:09;;;;;;;0.00;0.00;;;;;;;;;;5081589;28;45919;-65
2022/05/24 03:02:35;;;;;;;2.58;0.35;;;;;;;;;;5083543;28;20053;-65
2022/05/24 03:05:03;;;;;;;0.00;0.00;;;;;;;;;;5083900;28;20152;-65
2022/05/24 03:10:14;;;;;;;0.00;0.00;;;;;;;;;;5078717;28;20048;-65
2022/05/24 03:15:25;;;;;;;0.00;0.00;;;;;;;;;;5085881;28;20049;-65
2022/05/24 03:17:52;;;;;;;0.10;0.10;;;;;;;;;;5070923;28;20114;-65
2022/05/24 03:20:18;;;;;;;0.00;0.00;;;;;;;;;;5069553;28;20077;-66
2022/05/24 03:22:45;;;;;;;0.00;0.00;;;;;;;;;;5086770;28;20098;-65
2022/05/24 03:25:11;;;;;;;0.00;0.00;;;;;;;;;;5088139;28;20102;-65
2022/05/24 03:27:37;;;;;;;0.00;0.00;;;;;;;;;;5090524;28;20092;-65
2022/05/24 03:30:04;;;;;;;0.00;0.00;;;;;;;;;;5087370;28;20499;-65
2022/05/24 03:32:31;;;;;;;0.00;0.00;;;;;;;;;;5076884;28;20543;-65
2022/05/24 03:34:57;;;;;;;0.00;0.00;;;;;;;;;;5070523;28;20108;-65
2022/05/24 03:37:23;;;;;;;0.00;0.00;;;;;;;;;;5079039;28;20056;-65
2022/05/24 03:39:50;;;;;;;0.00;0.00;;;;;;;;;;5084795;28;20115;-65
2022/05/24 03:42:22;;;;;;;0.00;0.00;;;;;;;;;;5087118;28;20068;-65
2022/05/24 03:44:48;;;;;;;0.00;0.00;;;;;;;;;;5088782;28;20049;-65
2022/05/24 03:47:15;;;;;;;0.57;0.47;;;;;;;;;;5087164;28;20053;-65
2022/05/24 03:49:42;;;;;;;0.00;0.00;;;;;;;;;;5085630;28;20081;-65
2022/05/24 03:52:08;;;;;;;0.47;0.10;;;;;;;;;;5083725;28;20154;-65
2022/05/24 03:54:34;;;;;;;0.00;0.00;;;;;;;;;;5089132;28;20528;-65
2022/05/24 03:59:46;;;;;;;0.00;0.00;;;;;;;;;;5071837;28;20954;-65
2022/05/24 04:02:12;;;;;;;0.00;0.00;;;;;;;;;;5086497;28;20917;-65
2022/05/24 04:04:38;;;;;;;0.00;0.00;;;;;;;;;;5089785;28;20930;-65
2022/05/24 04:07:05;;;;;;;0.00;0.00;;;;;;;;;;5075129;28;20049;-65
2022/05/24 04:09:32;;;;;;;0.00;0.00;;;;;;;;;;5069405;28;20102;-65
2022/05/24 04:11:59;;;;;;;0.00;0.00;;;;;;;;;;5086748;28;20052;-65
2022/05/24 04:14:27;;;;;;;0.00;0.00;;;;;;;;;;5088865;28;20053;-65
2022/05/24 04:16:55;;;;;;;;;;;;;;;;;;5078488;28;20057;-65
2022/05/24 04:19:21;;;;;;;0.00;0.00;;;;;;;;;;5067803;28;43631;-65
2022/05/24 04:21:47;;;;;;;0.00;0.00;;;;;;;;;;5085973;28;20079;-65
2022/05/24 04:24:14;;;;;;;0.00;0.00;;;;;;;;;;5086362;28;20144;-65
2022/05/24 04:26:40;;;;;;;0.00;0.00;;;;;;;;;;5088651;28;20052;-65
2022/05/24 04:29:07;;;;;;;0.00;0.00;;;;;;;;;;5082949;28;20507;-65
2022/05/24 04:31:33;;;;;;;0.00;0.00;;;;;;;;;;5071837;28;20120;-65
2022/05/24 04:34:00;;;;;;;0.00;0.00;;;;;;;;;;5068245;28;20045;-65
2022/05/24 04:36:26;;;;;;;0.20;0.20;;;;;;;;;;5073833;28;20052;-65
2022/05/24 04:38:52;;;;;;;0.20;0.10;;;;;;;;;;5079411;28;20057;-65
2022/05/24 04:44:04;;;;;;;0.35;0.22;;;;;;;;;;5068109;28;20049;-65
2022/05/24 04:47:06;;;;;;;0.00;0.00;;;;;;;;;;5068558;28;20061;-65
2022/05/24 04:49:17;;;;;;;0.00;0.00;;;;;;;;;;5056865;28;20092;-66
2022/05/24 04:51:43;;;;;;;0.00;0.00;;;;;;;;;;5083644;28;20102;-65
2022/05/24 04:54:11;;;;;;;0.10;0.10;;;;;;;;;;5088459;28;20598;-65
2022/05/24 04:56:37;;;;;;;0.00;0.00;;;;;;;;;;5083951;28;20106;-65
2022/05/24 04:59:04;;;;;;;0.00;0.00;;;;;;;;;;5069125;28;20610;-65
2022/05/24 05:01:30;;;;;;;0.60;0.25;;;;;;;;;;5073136;28;20090;-65
2022/05/24 05:03:56;;;;;;;0.10;0.10;;;;;;;;;;5087717;28;20055;-65
2022/05/24 05:06:23;;;;;;;0.00;0.00;;;;;;;;;;5083856;28;20060;-65
2022/05/24 05:08:49;;;;;;;0.00;0.00;;;;;;;;;;5061896;28;20139;-65
2022/05/24 05:11:15;;;;;;;0.00;0.00;;;;;;;;;;5068334;28;20099;-65
2022/05/24 05:13:42;;;;;;;0.08;0.08;;;;;;;;;;5069434;28;20060;-65
2022/05/24 05:16:08;;;;;;;0.00;0.00;;;;;;;;;;5084681;28;20457;-65
2022/05/24 05:18:35;;;;;;;0.00;0.00;;;;;;;;;;5068238;28;20045;-65
2022/05/24 05:21:02;;;;;;;0.00;0.00;;;;;;;;;;5088472;28;20571;-65
2022/05/24 05:23:29;;;;;;;0.00;0.00;;;;;;;;;;5072565;28;20049;-65
2022/05/24 05:25:55;;;;;;;0.00;0.00;;;;;;;;;;5086786;28;20080;-65
2022/05/24 05:28:22;;;;;;;1.67;0.63;;;;;;;;;;5084719;28;20518;-65
2022/05/24 05:33:34;;;;;;;0.00;0.00;;;;;;;;;;5082187;28;20053;-65
2022/05/24 05:36:01;;;;;;;0.00;0.00;;;;;;;;;;5074535;28;20045;-65
2022/05/24 05:38:27;;;;;;;0.00;0.00;;;;;;;;;;5069032;28;20123;-65
2022/05/24 05:40:53;;;;;;;0.00;0.00;;;;;;;;;;5068250;28;20057;-65
2022/05/24 05:43:20;;;;;;;0.10;0.10;;;;;;;;;;5066817;28;20049;-65
2022/05/24 05:45:52;;;;;;;0.00;0.00;;;;;;;;;;5067059;28;20604;-65
2022/05/24 05:48:19;;;;;;;0.00;0.00;;;;;;;;;;5067606;28;20049;-65
2022/05/24 05:50:47;;;;;;;0.00;0.00;;;;;;;;;;5067801;28;20162;-65
2022/05/24 05:53:14;;;;;;;0.00;0.00;;;;;;;;;;5068551;28;20111;-65
2022/05/24 05:55:43;;;;;;;0.00;0.00;;;;;;;;;;5067554;28;20057;-65
2022/05/24 05:58:10;;;;;;;0.00;0.00;;;;;;;;;;5068006;28;20055;-65
2022/05/24 06:00:38;;;;;;;0.00;0.00;;;;;;;;;;5080272;28;20053;-65
2022/05/24 06:03:04;;;;;;;0.00;0.00;;;;;;;;;;5060634;28;20084;-65
2022/05/24 06:05:30;;;;;;;0.00;0.00;;;;;;;;;;5085475;28;20267;-65
2022/05/24 06:07:57;;;;;;;0.15;0.03;;;;;;;;;;5074305;28;20084;-65
2022/05/24 06:10:24;;;;;;;0.00;0.00;;;;;;;;;;5076545;28;20056;-66
2022/05/24 06:12:55;;;;;;;0.00;0.00;;;;;;;;;;5064989;28;20103;-65
2022/05/24 06:15:21;;;;;;;0.00;0.00;;;;;;;;;;5046949;28;20061;-65
2022/05/24 06:17:49;;;;;;;0.00;0.00;;;;;;;;;;5058754;28;20115;-66
2022/05/24 06:20:17;;;;;;;0.00;0.00;;;;;;;;;;5063449;28;20502;-66
2022/05/24 06:22:43;;;;;;;0.00;0.00;;;;;;;;;;5080322;28;20477;-66
2022/05/24 06:25:10;;;;;;;0.40;0.32;;;;;;;;;;5075692;28;20122;-66
2022/05/24 06:27:37;;;;;;;0.00;0.00;;;;;;;;;;5082373;28;20056;-68
2022/05/24 06:30:04;;;;;;;0.00;0.00;;;;;;;;;;5085176;28;20498;-67
2022/05/24 06:32:30;;;;;;;0.00;0.00;;;;;;;;;;5079576;28;20134;-68
2022/05/24 06:34:56;;;;;;;0.00;0.00;;;;;;;;;;5086129;28;20060;-64
2022/05/24 06:37:24;;;;;;;0.00;0.00;;;;;;;;;;5088922;28;20053;-64
2022/05/24 06:39:50;;;;;;;0.23;0.20;;;;;;;;;;5081715;28;20048;-64
2022/05/24 06:42:17;;;;;;;0.00;0.00;;;;;;;;;;5077127;28;20053;-64
2022/05/24 06:44:43;;;;;;;0.00;0.00;;;;;;;;;;5071479;28;20092;-64
2022/05/24 06:47:10;;;;;;;0.00;0.00;;;;;;;;;;5069932;28;20514;-64
2022/05/24 06:49:36;;;;;;;0.00;0.00;;;;;;;;;;5069799;28;20162;-64
2022/05/24 06:52:03;;;;;;;0.00;0.00;;;;;;;;;;5078290;28;20049;-64
2022/05/24 06:54:30;;;;;;;0.17;0.10;;;;;;;;;;5076152;28;20053;-64
2022/05/24 06:56:56;;;;;;;0.00;0.00;;;;;;;;;;5056096;28;20057;-64
2022/05/24 07:02:26;;;;;;;0.00;0.00;;;;;;;;;;5087471;28;20210;-64
2022/05/24 07:04:55;;;;;;;0.00;0.00;;;;;;;;;;5081006;28;20122;-64
2022/05/24 07:07:21;;;;;;;0.00;0.00;;;;;;;;;;5079355;28;20092;-64
2022/05/24 07:09:48;;;;;;;0.00;0.00;;;;;;;;;;5087358;28;20114;-65
2022/05/24 07:12:16;;;;;;;0.00;0.00;;;;;;;;;;5089427;28;20052;-64
2022/05/24 07:14:43;;;;;;;0.00;0.00;;;;;;;;;;5083442;28;20109;-63
2022/05/24 07:17:10;;;;;;;0.00;0.00;;;;;;;;;;5084714;28;20053;-65
2022/05/24 07:19:38;;;;;;;0.00;0.00;;;;;;;;;;5079100;28;20052;-63
2022/05/24 07:22:05;;;;;;;0.00;0.00;;;;;;;;;;5089867;28;20117;-63
2022/05/24 07:24:32;;;;;;;0.10;0.10;;;;;;;;;;5078497;28;20061;-63
2022/05/24 07:26:59;;;;;;;0.03;0.03;;;;;;;;;;5080669;28;20102;-63
2022/05/24 07:29:25;;;;;;;0.00;0.00;;;;;;;;;;5087260;28;20113;-63
2022/05/24 07:31:52;;;;;;;0.35;0.35;;;;;;;;;;5075234;28;20092;-63
2022/05/24 07:34:19;;;;;;;0.00;0.00;;;;;;;;;;5059544;28;20517;-63
2022/05/24 07:36:45;;;;;;;0.00;0.00;;;;;;;;;;5067755;28;20119;-65
2022/05/24 07:39:12;;;;;;;0.00;0.00;;;;;;;;;;5085873;28;20052;-65
2022/05/24 07:47:29;;;;;;;0.00;0.00;;;;;;;;;;5047283;28;20132;-65
2022/05/24 07:49:56;;;;;;;0.10;0.10;;;;;;;;;;5055218;28;20119;-65
2022/05/24 07:52:22;;;;;;;0.03;0.03;;;;;;;;;;5068335;28;20084;-65
2022/05/24 07:54:48;;;;;;;0.00;0.00;;;;;;;;;;5069256;28;20057;-65
2022/05/24 07:57:15;;;;;;;0.00;0.00;;;;;;;;;;5081941;28;20126;-65
2022/05/24 07:59:47;;;;;;;0.00;0.00;;;;;;;;;;5083527;28;20451;-65
2022/05/24 08:02:15;;;;;;;0.00;0.00;;;;;;;;;;5081818;28;20048;-67
2022/05/24 08:04:41;;;;;;;0.00;0.00;;;;;;;;;;5068938;28;20064;-66
2022/05/24 08:07:08;;;;;;;0.00;0.00;;;;;;;;;;5089629;28;20643;-66
2022/05/24 08:09:35;;;;;;;0.00;0.00;;;;;;;;;;5086682;28;20503;-66
2022/05/24 08:12:01;;;;;;;0.00;0.00;;;;;;;;;;5073967;28;20052;-66
2022/05/24 08:14:28;;;;;;;0.00;0.00;;;;;;;;;;5062041;28;20107;-66
2022/05/24 08:16:55;;;;;;;0.00;0.00;;;;;;;;;;5077653;28;20503;-66
2022/05/24 08:19:21;;;;;;;0.00;0.00;;;;;;;;;;5089031;28;20960;-67
2022/05/24 08:21:48;;;;;;;0.00;0.00;;;;;;;;;;5089226;28;20578;-67
2022/05/24 08:24:16;;;;;;;0.00;0.00;;;;;;;;;;5085116;28;20057;-66
2022/05/24 08:26:42;;;;;;;;;;;;;;;;;;5083040;28;20056;-66
2022/05/24 08:29:09;;;;;;;0.00;0.00;;;;;;;;;;5062475;28;44045;-66
2022/05/24 08:31:35;;;;;;;0.00;0.00;;;;;;;;;;5074838;28;20049;-67
2022/05/24 08:34:02;;;;;;;0.00;0.00;;;;;;;;;;5067560;28;20174;-67
2022/05/24 08:36:28;;;;;;;1.40;1.02;;;;;;;;;;5066041;28;20099;-66
2022/05/24 08:38:54;;;;;;;0.00;0.00;;;;;;;;;;5071366;28;20498;-66
2022/05/24 08:41:27;;;;;;;0.00;0.00;;;;;;;;;;5070281;28;20048;-65
2022/05/24 08:49:56;;;;;;;0.00;0.00;;;;;;;;;;5070438;28;20507;-66
2022/05/24 08:52:23;;;;;;;0.00;0.00;;;;;;;;;;5057747;28;20132;-66
2022/05/24 08:54:50;;;;;;;0.00;0.00;;;;;;;;;;5064998;28;20103;-66
2022/05/24 08:57:18;;;;;;;0.00;0.00;;;;;;;;;;5083906;28;20134;-64
2022/05/24 08:59:45;;;;;;;;;;;;;;;;;;5078847;28;20110;-65
2022/05/24 09:02:12;;;;;;;0.00;0.00;;;;;;;;;;5066947;28;46125;-65
2022/05/24 09:04:39;;;;;;;0.00;0.00;;;;;;;;;;5078492;28;20060;-64
2022/05/24 09:07:05;;;;;;;0.00;0.00;;;;;;;;;;5067300;28;20058;-65
2022/05/24 09:09:37;;;;;;;0.00;0.00;;;;;;;;;;5081011;28;20110;-64
2022/05/24 09:12:23;;;;;;;0.32;0.20;;;;;;;;;;5082580;28;20041;-65
2022/05/24 09:15:05;;;;;;;0.00;0.00;;;;;;;;;;5063377;28;20057;-64
2022/05/24 09:17:31;;;;;;;0.00;0.00;;;;;;;;;;5072561;28;20053;-65
2022/05/24 09:19:58;;;;;;;0.00;0.00;;;;;;;;;;5076796;28;20056;-65
2022/05/24 09:22:29;;;;;;;0.00;0.00;;;;;;;;;;5081496;28;20052;-65
2022/05/24 09:24:56;;;;;;;0.00;0.00;;;;;;;;;;5071362;28;20107;-64
2022/05/24 09:27:23;;;;;;;0.00;0.00;;;;;;;;;;5075542;28;20431;-63
2022/05/24 09:29:50;;;;;;;0.00;0.00;;;;;;;;;;5074195;28;20578;-64
2022/05/24 09:32:17;;;;;;;0.00;0.00;;;;;;;;;;5071971;28;20130;-63
2022/05/24 09:34:44;;;;;;;0.00;0.00;;;;;;;;;;5076312;28;20106;-63
2022/05/24 09:37:23;;;;;;;0.00;0.00;;;;;;;;;;5079490;28;20246;-63
2022/05/24 09:40:17;;;;;;;0.00;0.00;;;;;;;;;;5069161;28;20475;-63
2022/05/24 09:42:43;;;;;;;0.00;0.00;;;;;;;;;;5072542;28;20118;-64
2022/05/24 09:45:10;;;;;;;0.00;0.00;;;;;;;;;;5076222;28;20048;-63
2022/05/24 09:47:42;;;;;;;0.00;0.00;;;;;;;;;;5084648;28;20056;-64
2022/05/24 09:50:18;;;;;;;0.00;0.00;;;;;;;;;;5075165;28;20053;-63
2022/05/24 09:53:02;;;;;;;0.00;0.00;;;;;;;;;;5080067;28;20526;-64
2022/05/24 09:55:30;;;;;;;0.00;0.00;;;;;;;;;;5065227;28;20052;-64
2022/05/24 09:58:17;;;;;;;0.00;0.00;;;;;;;;;;5077284;28;20053;-64
2022/05/24 10:00:52;;;;;;;0.00;0.00;;;;;;;;;;5067810;28;20139;-63
2022/05/24 10:03:21;;;;;;;0.00;0.00;;;;;;;;;;5067046;28;20060;-64
2022/05/24 10:05:58;;;;;;;0.00;0.00;;;;;;;;;;5073048;28;20569;-64
2022/05/24 10:08:24;;;;;;;0.15;0.08;;;;;;;;;;5077930;28;20104;-64
2022/05/24 10:10:56;;;;;;;0.15;0.15;;;;;;;;;;5080010;28;20499;-63
2022/05/24 10:13:33;;;;;;;0.00;0.00;;;;;;;;;;5072385;28;20053;-63
2022/05/24 10:16:08;;;;;;;0.00;0.00;;;;;;;;;;5087161;28;20045;-64
2022/05/24 10:18:56;;;;;;;0.28;0.17;;;;;;;;;;5068681;28;20115;-65
2022/05/24 10:21:29;;;;;;;0.00;0.00;;;;;;;;;;5055801;28;20698;-64
2022/05/24 10:24:14;;;;;;;0.00;0.00;;;;;;;;;;5076949;28;20106;-65
2022/05/24 10:26:51;;;;;;;0.00;0.00;;;;;;;;;;5076560;28;20126;-65
2022/05/24 10:29:33;;;;;;;0.00;0.00;;;;;;;;;;5072287;28;20064;-65
2022/05/24 10:38:17;;;;;;;0.00;0.00;;;;;;;;;;5070547;28;20594;-65
2022/05/24 10:40:43;;;;;;;0.00;0.00;;;;;;;;;;5079185;28;20449;-65
2022/05/24 10:43:15;;;;;;;0.00;0.00;;;;;;;;;;5075143;28;20576;-65
2022/05/24 10:45:49;;;;;;;0.00;0.00;;;;;;;;;;5079173;28;20049;-64
2022/05/24 10:48:36;;;;;;;0.00;0.00;;;;;;;;;;5077021;28;20084;-65
2022/05/24 10:51:02;;;;;;;0.00;0.00;;;;;;;;;;5059903;28;20126;-65
2022/05/24 10:53:49;;;;;;;0.00;0.00;;;;;;;;;;5061062;28;20052;-65
2022/05/24 10:56:18;;;;;;;0.00;0.00;;;;;;;;;;5068985;28;20057;-65
2022/05/24 10:58:45;;;;;;;0.00;0.00;;;;;;;;;;5079047;28;20058;-65
2022/05/24 11:01:26;;;;;;;0.00;0.00;;;;;;;;;;5064081;28;20159;-65
2022/05/24 11:03:56;;;;;;;0.00;0.00;;;;;;;;;;5090373;28;20056;-68
2022/05/24 11:06:39;;;;;;;0.00;0.00;;;;;;;;;;5075031;28;20140;-69
2022/05/24 11:09:18;;;;;;;0.00;0.00;;;;;;;;;;5079651;28;20086;-69
2022/05/24 11:11:44;;;;;;;;;;;;;;;;;;5089821;28;20102;-68
2022/05/24 11:14:22;;;;;;;0.00;0.00;;;;;;;;;;5080669;28;44918;-68
2022/05/24 11:16:49;;;;;;;0.00;0.00;;;;;;;;;;5065220;28;20053;-68
2022/05/24 11:19:19;;;;;;;0.00;0.00;;;;;;;;;;5055069;28;20076;-68
2022/05/24 11:22:01;;;;;;;0.00;0.00;;;;;;;;;;5089908;28;20049;-68
2022/05/24 11:24:40;;;;;;;0.00;0.00;;;;;;;;;;5085259;28;20106;-67
2022/05/24 11:27:07;;;;;;;0.00;0.00;;;;;;;;;;5079780;28;20411;-67
2022/05/24 11:29:45;;;;;;;0.00;0.00;;;;;;;;;;5088786;28;20056;-68
2022/05/24 11:32:18;;;;;;;0.00;0.00;;;;;;;;;;5089309;28;20122;-68
2022/05/24 11:34:56;;;;;;;0.00;0.00;;;;;;;;;;5074129;28;20099;-68
2022/05/24 11:37:22;;;;;;;;;;;;;;;;;;5067833;28;20057;-66
2022/05/24 11:39:49;;;;;;;0.00;0.00;;;;;;;;;;5069421;28;45071;-67
2022/05/24 11:42:33;;;;;;;0.00;0.00;;;;;;;;;;5081655;28;20053;-67
2022/05/24 11:45:20;;;;;;;0.00;0.00;;;;;;;;;;5083538;28;20518;-67
2022/05/24 11:47:46;;;;;;;0.00;0.00;;;;;;;;;;5075546;28;20107;-67
2022/05/24 11:50:31;;;;;;;0.00;0.00;;;;;;;;;;5079906;28;20057;-67
2022/05/24 11:53:00;;;;;;;0.00;0.00;;;;;;;;;;5086150;28;20103;-67
2022/05/24 11:55:47;;;;;;;0.00;0.00;;;;;;;;;;5087570;28;20102;-66
2022/05/24 11:58:19;;;;;;;0.00;0.00;;;;;;;;;;5081030;28;20499;-67
2022/05/24 12:00:55;;;;;;;0.00;0.00;;;;;;;;;;5069347;28;20122;-67
2022/05/24 12:09:13;;;;;;;0.00;0.00;;;;;;;;;;5083683;28;20048;-67
2022/05/24 12:11:41;;;;;;;0.00;0.00;;;;;;;;;;5077238;28;20055;-66
2022/05/24 12:14:19;;;;;;;0.00;0.00;;;;;;;;;;5085409;28;20060;-66
2022/05/24 12:16:54;;;;;;;0.00;0.00;;;;;;;;;;5067396;28;20111;-65
2022/05/24 12:19:41;;;;;;;0.00;0.00;;;;;;;;;;5057495;28;20056;-71
2022/05/24 12:22:12;;;;;;;0.00;0.00;;;;;;;;;;5082291;28;20060;-67
2022/05/24 12:24:38;;;;;;;0.00;0.00;;;;;;;;;;5086624;28;20174;-65
2022/05/24 12:27:22;;;;;;;0.00;0.00;;;;;;;;;;5064656;28;20582;-65
2022/05/24 12:29:55;;;;;;;0.00;0.00;;;;;;;;;;5066698;28;20107;-66
2022/05/24 12:32:22;;;;;;;0.00;0.00;;;;;;;;;;5082845;28;20119;-66
2022/05/24 12:34:49;;;;;;;0.00;0.00;;;;;;;;;;5067790;28;20089;-66
2022/05/24 12:37:15;;;;;;;0.00;0.00;;;;;;;;;;5062273;28;20052;-65
2022/05/24 12:40:02;;;;;;;0.00;0.00;;;;;;;;;;5079736;28;20057;-65
2022/05/24 12:42:28;;;;;;;0.05;0.00;;;;;;;;;;5083095;28;20068;-65
2022/05/24 12:44:59;;;;;;;0.05;0.03;;;;;;;;;;5058279;28;20041;-65
2022/05/24 12:47:26;;;;;;;0.00;0.00;;;;;;;;;;5059204;28;20056;-65
2022/05/24 12:49:58;;;;;;;0.00;0.00;;;;;;;;;;5073439;28;20092;-65
2022/05/24 12:52:26;;;;;;;0.00;0.00;;;;;;;;;;5073771;28;20570;-65
2022/05/24 12:54:53;;;;;;;0.00;0.00;;;;;;;;;;5071394;28;20098;-65
2022/05/24 12:57:26;;;;;;;0.00;0.00;;;;;;;;;;5059737;28;20036;-65
2022/05/24 12:59:57;;;;;;;0.00;0.00;;;;;;;;;;5087284;28;20110;-65
2022/05/24 13:02:23;;;;;;;0.00;0.00;;;;;;;;;;5075117;28;20215;-65
2022/05/24 13:04:50;;;;;;;0.00;0.00;;;;;;;;;;5071576;28;20056;-65
2022/05/24 13:07:35;;;;;;;0.00;0.00;;;;;;;;;;5061291;28;20644;-65
2022/05/24 13:10:21;;;;;;;0.00;0.00;;;;;;;;;;5077868;28;20061;-65
2022/05/24 13:12:54;;;;;;;0.00;0.00;;;;;;;;;;5079252;28;20829;-64
2022/05/24 13:15:23;;;;;;;0.00;0.00;;;;;;;;;;5065101;28;20167;-65
2022/05/24 13:17:53;;;;;;;0.00;0.00;;;;;;;;;;5075253;28;20060;-65
2022/05/24 13:20:22;;;;;;;0.00;0.00;;;;;;;;;;5085334;28;20110;-65
2022/05/24 13:22:48;;;;;;;0.00;0.00;;;;;;;;;;5072801;28;20119;-64
2022/05/24 13:25:25;;;;;;;0.00;0.00;;;;;;;;;;5061259;28;20083;-63
2022/05/24 13:27:53;;;;;;;0.00;0.00;;;;;;;;;;5066198;28;20076;-64
2022/05/24 13:33:44;;;;;;;0.00;0.00;;;;;;;;;;5067378;28;20051;-65
2022/05/24 13:36:15;;;;;;;0.00;0.00;;;;;;;;;;5071215;28;20102;-65
2022/05/24 13:38:42;;;;;;;0.00;0.00;;;;;;;;;;5087622;28;20142;-65
2022/05/24 13:41:09;;;;;;;0.00;0.00;;;;;;;;;;5066474;28;20088;-65
2022/05/24 13:43:44;;;;;;;0.00;0.00;;;;;;;;;;5080526;28;20053;-64
2022/05/24 13:46:19;;;;;;;0.00;0.00;;;;;;;;;;5071876;28;20052;-64
2022/05/24 13:48:53;;;;;;;0.00;0.00;;;;;;;;;;5085922;28;20590;-64
2022/05/24 13:51:25;;;;;;;2.45;1.35;;;;;;;;;;5055279;28;20056;-64
2022/05/24 13:53:51;;;;;;;0.00;0.00;;;;;;;;;;5077425;28;20656;-64
2022/05/24 13:56:21;;;;;;;0.00;0.00;;;;;;;;;;5073630;28;20050;-65
2022/05/24 13:58:49;;;;;;;0.00;0.00;;;;;;;;;;5065820;28;20061;-65
2022/05/24 14:01:25;;;;;;;0.25;0.22;;;;;;;;;;5071415;28;20564;-65
2022/05/24 14:03:56;;;;;;;0.05;0.05;;;;;;;;;;5078797;28;20052;-64
2022/05/24 14:06:25;;;;;;;0.00;0.00;;;;;;;;;;5076250;28;20059;-65
2022/05/24 14:08:52;;;;;;;0.00;0.00;;;;;;;;;;5083894;28;20507;-65
2022/05/24 14:11:20;;;;;;;0.00;0.00;;;;;;;;;;5081660;28;20092;-65
2022/05/24 14:13:47;;;;;;;0.00;0.00;;;;;;;;;;5078866;28;20526;-65
2022/05/24 14:16:14;;;;;;;0.00;0.00;;;;;;;;;;5074957;28;20159;-65
2022/05/24 14:18:40;;;;;;;0.00;0.00;;;;;;;;;;5070107;28;20504;-65
2022/05/24 14:21:07;;;;;;;0.00;0.00;;;;;;;;;;5082843;28;20511;-65
2022/05/24 14:23:34;;;;;;;1.95;0.32;;;;;;;;;;5080369;28;20045;-65
2022/05/24 14:26:01;;;;;;;0.00;0.00;;;;;;;;;;5087615;28;20169;-66
2022/05/24 14:28:28;;;;;;;0.00;0.00;;;;;;;;;;5074042;28;20475;-65
2022/05/24 14:30:54;;;;;;;0.00;0.00;;;;;;;;;;5083019;28;20088;-65
2022/05/24 14:33:21;;;;;;;0.00;0.00;;;;;;;;;;5073312;28;20083;-65
2022/05/24 14:35:47;;;;;;;0.00;0.00;;;;;;;;;;5076858;28;20072;-65
2022/05/24 14:38:14;;;;;;;0.00;0.00;;;;;;;;;;5078853;28;20053;-65
2022/05/24 14:40:41;;;;;;;0.00;0.00;;;;;;;;;;5086717;28;20079;-65
2022/05/24 14:43:09;;;;;;;0.00;0.00;;;;;;;;;;5075801;28;20056;-65
2022/05/24 14:45:35;;;;;;;0.00;0.00;;;;;;;;;;5079933;28;20057;-65
2022/05/24 14:48:02;;;;;;;0.00;0.00;;;;;;;;;;5070886;28;20103;-65
2022/05/24 14:50:29;;;;;;;0.00;0.00;;;;;;;;;;5075505;28;20143;-65
2022/05/24 14:52:55;;;;;;;0.00;0.00;;;;;;;;;;5089261;28;20052;-66
2022/05/24 14:55:22;;;;;;;0.00;0.00;;;;;;;;;;5088858;28;20110;-65
2022/05/24 14:57:49;;;;;;;0.00;0.00;;;;;;;;;;5081826;28;20503;-63
2022/05/24 15:00:19;;;;;;;0.00;0.00;;;;;;;;;;5080397;28;20060;-66
2022/05/24 15:02:45;;;;;;;0.00;0.00;;;;;;;;;;5083782;28;20080;-65
2022/05/24 15:05:12;;;;;;;0.13;0.13;;;;;;;;;;5082245;28;20052;-63
2022/05/24 15:15:55;;;;;;;0.00;0.00;;;;;;;;;;5066742;28;20072;-65
2022/05/24 15:18:22;;;;;;;0.00;0.00;;;;;;;;;;5085540;28;20567;-65
2022/05/24 15:20:48;;;;;;;0.00;0.00;;;;;;;;;;5082485;28;20569;-65
2022/05/24 15:23:17;;;;;;;0.00;0.00;;;;;;;;;;5070404;28;20076;-65
2022/05/24 15:25:47;;;;;;;0.10;0.10;;;;;;;;;;5087203;28;20126;-65
2022/05/24 15:28:14;;;;;;;0.00;0.00;;;;;;;;;;5075426;28;20950;-65
2022/05/24 15:30:40;;;;;;;0.00;0.00;;;;;;;;;;5084342;28;20106;-65
2022/05/24 15:33:10;;;;;;;0.00;0.00;;;;;;;;;;5073786;28;20058;-65
2022/05/24 15:35:36;;;;;;;0.00;0.00;;;;;;;;;;5082712;28;20057;-65
2022/05/24 15:38:03;;;;;;;0.00;0.00;;;;;;;;;;5071208;28;20126;-64
2022/05/24 15:40:29;;;;;;;0.00;0.00;;;;;;;;;;5069303;28;20053;-65
2022/05/24 15:42:56;;;;;;;0.00;0.00;;;;;;;;;;5083142;28;20052;-65
2022/05/24 15:45:23;;;;;;;0.00;0.00;;;;;;;;;;5087230;28;20056;-63
2022/05/24 15:47:49;;;;;;;0.00;0.00;;;;;;;;;;5080851;28;20053;-65
2022/05/24 15:50:16;;;;;;;0.00;0.00;;;;;;;;;;5081779;28;20056;-65
2022/05/24 15:52:42;;;;;;;0.00;0.00;;;;;;;;;;5072718;28;20061;-65
2022/05/24 15:55:10;;;;;;;0.00;0.00;;;;;;;;;;5085781;28;20052;-65
2022/05/24 15:57:37;;;;;;;0.00;0.00;;;;;;;;;;5076492;28;20057;-65